Time;durP1;ratioP1;P1;durP2;ratioP2;P2;SDS_P1;SDS_P2;PMS_P1;PMS_P2;Temp;Humidity;BMP_temperature;BMP_pressure;BME280_temperature;BME280_humidity;BME280_pressure;Samples;Min_cycle;Max_cycle;Signal;HPM_P1;HPM_P2
2022/08/10 00:02:14;;;;;;;3.65;2.10;;;;;;;22.20;49.77;102566.09;6239981;23;20073;-60
2022/08/10 00:04:40;;;;;;;2.20;2.00;;;;;;;22.18;49.85;102565.56;6239735;22;20390;-60
2022/08/10 00:07:05;;;;;;;1.80;1.70;;;;;;;22.21;49.97;102564.13;6240770;23;20004;-61
2022/08/10 00:09:30;;;;;;;3.53;1.75;;;;;;;22.15;50.32;102559.63;6239366;23;20028;-60
2022/08/10 00:11:55;;;;;;;2.60;1.77;;;;;;;22.17;49.90;102561.03;6240303;23;20004;-59
2022/08/10 00:14:21;;;;;;;1.90;1.80;;;;;;;22.06;49.73;102562.19;6240277;23;20008;-60
2022/08/10 00:16:46;;;;;;;2.63;1.70;;;;;;;22.11;50.05;102564.97;6240410;23;20094;-60
2022/08/10 00:19:11;;;;;;;2.42;2.00;;;;;;;21.97;50.11;102556.28;6238766;23;20027;-60
2022/08/10 00:21:37;;;;;;;4.20;1.85;;;;;;;22.07;50.51;102561.03;6236630;23;20004;-60
2022/08/10 00:24:02;;;;;;;1.80;1.70;;;;;;;21.99;50.38;102556.84;6240397;23;20008;-59
2022/08/10 00:26:28;;;;;;;1.95;1.50;;;;;;;22.05;50.36;102557.69;6241106;23;20391;-60
2022/08/10 00:28:53;;;;;;;3.53;1.60;;;;;;;22.05;50.34;102550.03;6239948;23;20012;-60
2022/08/10 00:31:18;;;;;;;1.95;1.65;;;;;;;22.03;50.32;102551.44;6241119;23;20000;-59
2022/08/10 00:33:43;;;;;;;3.75;2.10;;;;;;;21.98;50.41;102537.34;6240201;23;20011;-59
2022/08/10 00:36:12;;;;;;;3.35;1.90;;;;;;;21.96;50.18;102540.44;6239789;23;20012;-59
2022/08/10 00:38:37;;;;;;;3.22;2.00;;;;;;;21.94;50.52;102539.06;6240287;23;20114;-59
2022/08/10 00:41:03;;;;;;;2.30;2.10;;;;;;;21.93;50.30;102541.03;6239845;23;20036;-59
2022/08/10 00:43:28;;;;;;;3.78;2.10;;;;;;;21.92;50.72;102542.16;6239543;23;20392;-60
2022/08/10 00:45:53;;;;;;;4.35;2.03;;;;;;;21.92;50.36;102539.31;6238872;23;20018;-59
2022/08/10 00:48:18;;;;;;;2.30;1.75;;;;;;;21.92;50.29;102538.50;6239594;23;20340;-60
2022/08/10 00:50:44;;;;;;;2.80;1.92;;;;;;;21.83;50.62;102529.75;6240049;23;20313;-59
2022/08/10 00:53:09;;;;;;;2.15;1.95;;;;;;;21.79;50.60;102540.81;6240825;23;20054;-59
2022/08/10 00:55:35;;;;;;;4.13;2.20;;;;;;;21.75;50.59;102536.84;6239939;23;20015;-59
2022/08/10 00:58:01;;;;;;;2.47;1.90;;;;;;;21.80;50.44;102536.84;6239617;23;20008;-59
2022/08/10 01:00:28;;;;;;;5.00;2.13;;;;;;;21.69;50.75;102534.31;6237839;23;20004;-59
2022/08/10 01:02:53;;;;;;;1.85;1.75;;;;;;;21.71;50.67;102532.91;6241003;23;20000;-59
2022/08/10 01:05:20;;;;;;;4.47;1.95;;;;;;;21.75;50.78;102536.84;6240737;23;20033;-59
2022/08/10 01:08:06;;;;;;;2.65;2.00;;;;;;;21.68;50.68;102533.50;6241853;23;20004;-59
2022/08/10 01:10:58;;;;;;;4.13;1.92;;;;;;;21.72;50.91;102534.59;6242452;23;20012;-60
2022/08/10 01:13:36;;;;;;;3.47;2.30;;;;;;;21.72;50.57;102530.94;6236855;23;20008;-60
2022/08/10 01:16:40;;;;;;;4.65;2.47;;;;;;;21.76;50.34;102532.88;6243796;23;20087;-60
2022/08/10 01:19:27;;;;;;;3.92;1.92;;;;;;;21.72;50.54;102528.94;6225355;23;20023;-60
2022/08/10 01:22:01;;;;;;;2.35;2.05;;;;;;;21.64;50.81;102525.88;6243931;23;20004;-59
2022/08/10 01:24:32;;;;;;;2.25;1.98;;;;;;;21.66;50.60;102517.97;6243672;23;20032;-60
2022/08/10 01:27:12;;;;;;;2.60;1.70;;;;;;;21.65;50.82;102522.75;6243031;23;20004;-60
2022/08/10 01:29:58;;;;;;;2.05;1.85;;;;;;;21.67;50.66;102522.47;6244338;23;20015;-60
2022/08/10 01:32:31;;;;;;;4.68;2.38;;;;;;;21.60;50.73;102524.75;6242553;23;20004;-59
2022/08/10 01:35:20;;;;;;;2.08;1.90;;;;;;;21.62;50.64;102529.00;6243207;23;20011;-60
2022/08/10 01:37:55;;;;;;;3.55;2.20;;;;;;;21.48;51.06;102525.06;6243817;23;20065;-60
2022/08/10 01:40:26;;;;;;;2.60;2.25;;;;;;;21.37;51.44;102529.06;6243282;23;20039;-60
2022/08/10 01:42:54;;;;;;;1.63;1.52;;;;;;;21.45;51.42;102525.63;6244463;23;20008;-60
2022/08/10 01:45:23;;;;;;;4.28;2.60;;;;;;;21.41;51.31;102528.19;6243629;23;20027;-60
2022/08/10 01:50:40;;;;;;;3.47;2.13;;;;;;;21.35;51.56;102523.69;6242922;23;20383;-60
2022/08/10 01:53:11;;;;;;;3.80;2.20;;;;;;;21.30;51.44;102520.88;6243111;23;20019;-60
2022/08/10 01:55:38;;;;;;;4.47;2.20;;;;;;;21.37;51.37;102520.56;6242756;23;20004;-60
2022/08/10 01:58:07;;;;;;;4.35;1.85;;;;;;;21.38;51.32;102525.09;6241781;23;20044;-60
2022/08/10 02:00:36;;;;;;;2.95;2.08;;;;;;;21.30;51.44;102518.03;6242772;23;20066;-60
2022/08/10 02:03:04;;;;;;;3.67;2.10;;;;;;;21.28;51.52;102523.94;6243356;23;20328;-60
2022/08/10 02:05:31;;;;;;;2.42;2.22;;;;;;;21.20;51.53;102529.34;6242421;23;20001;-59
2022/08/10 02:07:59;;;;;;;6.07;2.63;;;;;;;21.20;51.81;102530.19;6242757;23;20004;-60
2022/08/10 02:10:26;;;;;;;3.88;2.17;;;;;;;21.16;51.89;102531.03;6243505;23;20440;-60
2022/08/10 02:12:55;;;;;;;5.22;2.55;;;;;;;21.16;51.99;102520.59;6242328;23;20035;-60
2022/08/10 02:15:23;;;;;;;3.80;2.30;;;;;;;21.19;51.91;102522.00;6243295;23;20352;-60
2022/08/10 02:17:54;;;;;;;2.58;2.13;;;;;;;21.11;52.09;102526.25;6243724;23;20409;-60
2022/08/10 02:20:23;;;;;;;3.22;2.53;;;;;;;21.17;51.97;102524.25;6242654;23;20008;-60
2022/08/10 02:22:55;;;;;;;2.60;2.40;;;;;;;21.20;51.79;102516.06;6242923;23;20004;-60
2022/08/10 02:25:23;;;;;;;3.37;2.57;;;;;;;21.13;52.06;102514.66;6243382;23;20545;-60
2022/08/10 02:27:49;;;;;;;3.72;2.08;;;;;;;21.16;51.95;102509.28;6242032;23;20547;-60
2022/08/10 02:30:15;;;;;;;5.80;2.40;;;;;;;21.00;52.10;102510.44;6242007;23;20026;-60
2022/08/10 02:32:42;;;;;;;2.20;1.85;;;;;;;21.08;52.11;102515.53;6243639;23;20087;-60
2022/08/10 02:35:11;;;;;;;3.33;1.83;;;;;;;21.18;52.05;102520.28;6243094;23;20610;-59
2022/08/10 02:37:38;;;;;;;3.67;2.42;;;;;;;21.14;52.12;102517.19;6243585;23;20326;-59
2022/08/10 02:40:04;;;;;;;3.22;2.60;;;;;;;21.05;52.19;102513.25;6241390;23;20016;-59
2022/08/10 02:42:42;;;;;;;2.40;2.17;;;;;;;21.07;52.01;102514.69;6243420;23;20004;-59
2022/08/10 02:45:24;;;;;;;3.58;2.08;;;;;;;21.07;52.10;102523.16;6243407;23;20064;-60
2022/08/10 02:48:06;;;;;;;4.82;2.42;;;;;;;21.05;51.98;102519.75;6243335;23;20058;-59
2022/08/10 02:50:34;;;;;;;3.28;2.33;;;;;;;20.97;52.37;102514.66;6244293;23;20384;-59
2022/08/10 02:53:11;;;;;;;3.97;3.00;;;;;;;20.86;52.72;102520.59;6246040;23;20083;-59
2022/08/10 02:55:57;;;;;;;2.50;2.15;;;;;;;21.02;52.00;102509.00;6243226;23;20004;-59
2022/08/10 02:58:30;;;;;;;3.42;2.90;;;;;;;20.87;52.59;102505.34;6244240;23;20012;-59
2022/08/10 03:00:59;;;;;;;5.60;2.50;;;;;;;20.87;52.58;102500.59;6245347;23;20031;-59
2022/08/10 03:03:36;;;;;;;4.03;2.00;;;;;;;20.93;52.54;102498.59;6244666;23;20416;-59
2022/08/10 03:06:11;;;;;;;2.85;1.90;;;;;;;20.95;52.43;102491.53;6245414;23;20355;-60
2022/08/10 03:08:41;;;;;;;4.07;3.22;;;;;;;20.81;52.59;102494.06;6245073;23;20423;-60
2022/08/10 03:11:11;;;;;;;2.80;2.40;;;;;;;20.83;52.84;102491.81;6243115;23;20000;-60
2022/08/10 03:13:37;;;;;;;4.25;2.13;;;;;;;20.90;52.76;102496.31;6244910;23;20004;-59
2022/08/10 03:16:03;;;;;;;3.60;3.30;;;;;;;20.74;53.12;102492.66;6244826;23;20087;-59
2022/08/10 03:18:30;;;;;;;4.30;3.33;;;;;;;20.63;53.27;102488.13;6244107;23;20135;-60
2022/08/10 03:20:57;;;;;;;3.38;3.05;;;;;;;20.74;52.91;102489.84;6245655;23;20026;-59
2022/08/10 03:23:25;;;;;;;3.95;3.42;;;;;;;20.71;53.02;102490.41;6245246;23;20011;-59
2022/08/10 03:25:55;;;;;;;2.60;2.22;;;;;;;20.75;52.85;102492.41;6244254;23;20004;-60
2022/08/10 03:28:31;;;;;;;2.78;2.55;;;;;;;20.77;52.97;102495.78;6245648;23;20054;-59
2022/08/10 03:30:59;;;;;;;4.55;2.97;;;;;;;20.69;53.23;102489.84;6245836;23;20004;-60
2022/08/10 03:33:27;;;;;;;3.45;2.70;;;;;;;20.63;53.38;102488.97;6245582;23;20343;-59
2022/08/10 03:35:53;;;;;;;3.95;3.05;;;;;;;20.66;53.33;102482.78;6245666;23;20053;-60
2022/08/10 03:38:18;;;;;;;6.20;3.20;;;;;;;20.66;53.29;102485.59;6244962;23;20079;-59
2022/08/10 03:40:46;;;;;;;5.03;3.35;;;;;;;20.61;53.32;102479.97;6243967;23;20417;-60
2022/08/10 03:43:18;;;;;;;3.42;3.10;;;;;;;20.54;53.52;102488.69;6244949;23;20028;-61
2022/08/10 03:45:50;;;;;;;4.28;3.88;;;;;;;20.53;53.43;102489.84;6243944;23;20419;-61
2022/08/10 03:48:18;;;;;;;5.28;3.83;;;;;;;20.48;53.56;102494.59;6245579;23;20008;-61
2022/08/10 03:50:44;;;;;;;4.10;3.05;;;;;;;20.57;53.67;102490.13;6244619;23;20012;-60
2022/08/10 03:53:09;;;;;;;5.90;3.97;;;;;;;20.44;53.75;102487.84;6243430;23;20015;-60
2022/08/10 03:55:39;;;;;;;6.43;3.13;;;;;;;20.50;53.49;102495.19;6245186;23;20008;-61
2022/08/10 03:58:04;;;;;;;3.95;3.08;;;;;;;20.50;53.61;102496.03;6244887;23;20004;-60
2022/08/10 04:00:35;;;;;;;2.75;2.55;;;;;;;20.54;53.59;102496.31;6243608;23;20000;-60
2022/08/10 04:03:03;;;;;;;3.80;3.47;;;;;;;20.47;53.87;102502.19;6245006;23;20035;-60
2022/08/10 04:05:30;;;;;;;7.18;3.17;;;;;;;20.49;53.85;102493.50;6244764;23;20004;-60
2022/08/10 04:07:56;;;;;;;4.07;3.60;;;;;;;20.49;53.63;102491.53;6244268;23;20007;-60
2022/08/10 04:10:24;;;;;;;4.43;3.67;;;;;;;20.46;54.01;102494.03;6242371;23;20020;-59
2022/08/10 04:12:49;;;;;;;3.78;3.38;;;;;;;20.45;53.76;102492.34;6244370;23;20011;-59
2022/08/10 04:15:17;;;;;;;3.42;3.13;;;;;;;20.49;53.79;102491.53;6243776;23;20005;-59
2022/08/10 04:17:43;;;;;;;3.75;3.45;;;;;;;20.45;53.84;102500.81;6244747;23;20015;-59
2022/08/10 04:20:18;;;;;;;5.60;4.00;;;;;;;20.33;54.12;102496.28;6243001;23;20009;-60
2022/08/10 04:22:47;;;;;;;4.88;3.95;;;;;;;20.34;54.05;102494.28;6244607;23;20011;-60
2022/08/10 04:25:14;;;;;;;5.50;3.20;;;;;;;20.40;54.20;102504.47;6244223;23;20008;-60
2022/08/10 04:27:39;;;;;;;5.03;3.92;;;;;;;20.31;54.12;102498.50;6244100;23;20007;-60
2022/08/10 04:30:05;;;;;;;4.85;3.22;;;;;;;20.38;54.14;102503.03;6243056;23;20320;-60
2022/08/10 04:32:33;;;;;;;5.03;4.05;;;;;;;20.35;54.22;102499.63;6244705;23;20003;-60
2022/08/10 04:35:00;;;;;;;6.80;4.25;;;;;;;20.27;54.28;102500.19;6243807;23;20004;-60
2022/08/10 04:37:26;;;;;;;5.28;3.45;;;;;;;20.30;54.27;102496.81;6244754;23;20011;-59
2022/08/10 04:39:52;;;;;;;4.40;3.97;;;;;;;20.26;54.68;102504.13;6243735;23;20007;-59
2022/08/10 04:42:18;;;;;;;4.88;3.58;;;;;;;20.27;54.38;102503.00;6241589;23;20012;-59
2022/08/10 04:44:43;;;;;;;7.13;3.97;;;;;;;20.23;54.38;102503.84;6243582;23;20081;-60
2022/08/10 04:47:09;;;;;;;3.80;3.25;;;;;;;20.24;54.53;102508.34;6244070;23;20000;-60
2022/08/10 04:49:34;;;;;;;3.15;2.85;;;;;;;20.29;54.42;102505.56;6242623;23;20446;-60
2022/08/10 04:51:59;;;;;;;3.58;3.22;;;;;;;20.30;54.15;102493.16;6243847;23;20007;-60
2022/08/10 04:54:25;;;;;;;4.63;4.22;;;;;;;20.27;54.60;102499.34;6243999;23;20000;-60
2022/08/10 04:56:50;;;;;;;4.28;3.88;;;;;;;20.25;54.62;102495.97;6241503;23;20019;-59
2022/08/10 04:59:15;;;;;;;4.10;3.70;;;;;;;20.21;54.60;102492.88;6243165;23;20001;-60
2022/08/10 05:01:41;;;;;;;7.18;4.78;;;;;;;20.21;54.64;102487.22;6241832;23;20023;-60
2022/08/10 05:04:06;;;;;;;4.43;3.28;;;;;;;20.21;54.85;102495.69;6243366;23;20032;-60
2022/08/10 05:06:32;;;;;;;6.95;4.65;;;;;;;20.19;54.79;102497.91;6242086;23;20626;-60
2022/08/10 05:08:58;;;;;;;3.78;3.38;;;;;;;20.24;54.69;102492.31;6242844;23;20020;-60
2022/08/10 05:11:23;;;;;;;3.08;2.78;;;;;;;20.25;54.77;102499.63;6242810;23;20034;-60
2022/08/10 05:13:48;;;;;;;4.90;3.45;;;;;;;20.22;54.81;102497.38;6244126;23;20332;-60
2022/08/10 05:16:14;;;;;;;6.72;4.28;;;;;;;20.16;54.78;102490.03;6243213;23;20050;-60
2022/08/10 05:18:39;;;;;;;6.25;4.60;;;;;;;20.17;55.07;102494.53;6244162;23;20415;-59
2022/08/10 05:21:05;;;;;;;5.15;4.18;;;;;;;20.17;54.98;102497.38;6242513;23;20072;-60
2022/08/10 05:23:33;;;;;;;7.10;4.70;;;;;;;20.05;55.51;102493.94;6244367;23;20029;-59
2022/08/10 05:25:58;;;;;;;4.28;3.88;;;;;;;20.11;55.41;102496.47;6243424;23;20063;-59
2022/08/10 05:28:23;;;;;;;4.97;3.97;;;;;;;20.13;55.39;102496.22;6242698;23;20007;-59
2022/08/10 05:30:54;;;;;;;4.68;4.28;;;;;;;20.03;55.48;102502.66;6242991;23;20011;-59
2022/08/10 05:33:25;;;;;;;8.82;4.53;;;;;;;20.07;55.42;102505.78;6240667;23;20709;-59
2022/08/10 05:35:54;;;;;;;6.95;4.47;;;;;;;20.08;55.50;102507.47;6243279;23;20028;-59
2022/08/10 05:38:21;;;;;;;7.47;4.88;;;;;;;20.00;55.97;102511.69;6242071;23;20055;-59
2022/08/10 05:40:48;;;;;;;7.47;4.95;;;;;;;20.01;56.13;102512.53;6244293;23;20008;-59
2022/08/10 05:43:19;;;;;;;5.53;4.72;;;;;;;20.01;56.05;102504.94;6243425;23;20410;-59
2022/08/10 05:45:46;;;;;;;5.25;4.85;;;;;;;20.01;56.22;102504.94;6242478;23;20420;-59
2022/08/10 05:48:11;;;;;;;5.88;4.95;;;;;;;20.00;56.42;102499.56;6243761;23;20420;-59
2022/08/10 05:50:36;;;;;;;6.90;4.93;;;;;;;20.01;56.56;102512.53;6243414;23;20053;-59
2022/08/10 05:53:02;;;;;;;7.45;4.95;;;;;;;19.96;56.43;102498.41;6242332;23;20004;-59
2022/08/10 05:55:29;;;;;;;5.75;3.83;;;;;;;20.01;56.13;102512.53;6244370;23;20123;-60
2022/08/10 05:57:55;;;;;;;6.25;5.70;;;;;;;20.02;56.50;102511.41;6243522;23;20008;-59
2022/08/10 06:00:23;;;;;;;5.32;4.68;;;;;;;20.03;56.69;102513.09;6241535;23;20008;-59
2022/08/10 06:02:53;;;;;;;6.93;5.53;;;;;;;20.02;56.86;102517.91;6243354;23;20004;-59
2022/08/10 06:05:23;;;;;;;5.65;4.00;;;;;;;20.06;56.38;102513.41;6242780;23;20004;-59
2022/08/10 06:07:55;;;;;;;8.27;6.20;;;;;;;20.10;56.55;102513.69;6242788;23;20000;-60
2022/08/10 06:10:22;;;;;;;8.00;4.10;;;;;;;20.18;55.58;102504.69;6242378;23;20043;-59
2022/08/10 06:14:59;;;;;;;4.05;3.15;;;;;;;20.21;55.85;102514.56;6242636;23;20004;-60
2022/08/10 06:15:37;;;;;;;3.78;3.42;;;;;;;20.27;56.27;102510.63;6243494;23;20008;-58
2022/08/10 06:18:03;;;;;;;4.25;3.25;;;;;;;20.37;55.53;102507.00;6243658;23;20008;-59
2022/08/10 06:20:29;;;;;;;7.78;5.88;;;;;;;20.37;56.24;102518.28;6243287;23;20008;-59
2022/08/10 06:22:56;;;;;;;4.22;3.63;;;;;;;20.48;55.69;102514.34;6245406;23;20071;-59
2022/08/10 06:25:22;;;;;;;4.15;3.78;;;;;;;20.57;55.55;102512.69;6244128;23;20087;-59
2022/08/10 06:27:49;;;;;;;5.85;4.82;;;;;;;20.60;55.50;102517.78;6244758;23;20031;-59
2022/08/10 06:30:15;;;;;;;7.88;6.32;;;;;;;20.57;55.68;102512.69;6243067;23;20016;-59
2022/08/10 06:32:41;;;;;;;5.25;3.67;;;;;;;20.67;54.29;102514.66;6242772;23;20328;-60
2022/08/10 06:35:09;;;;;;;5.78;4.03;;;;;;;20.75;54.95;102520.63;6243499;23;20012;-60
2022/08/10 06:37:37;;;;;;;4.20;3.80;;;;;;;20.80;55.03;102517.78;6245171;23;20008;-60
2022/08/10 06:40:03;;;;;;;6.90;6.22;;;;;;;20.78;55.57;102510.72;6245104;23;20027;-60
2022/08/10 06:42:32;;;;;;;6.78;5.40;;;;;;;20.80;55.53;102514.13;6244130;23;20327;-60
2022/08/10 06:45:11;;;;;;;5.45;4.95;;;;;;;20.88;55.06;102509.88;6246273;23;20075;-61
2022/08/10 06:47:48;;;;;;;6.90;5.88;;;;;;;20.88;54.66;102516.38;6244340;23;20004;-61
2022/08/10 06:50:29;;;;;;;3.05;2.75;;;;;;;21.00;54.37;102504.78;6242850;23;20059;-59
2022/08/10 06:52:55;;;;;;;9.50;4.03;;;;;;;21.07;55.72;102513.84;6244844;23;20412;-61
2022/08/10 06:55:23;;;;;;;8.60;4.57;;;;;;;21.10;54.25;102510.41;6244013;23;20004;-61
2022/08/10 06:57:49;;;;;;;3.80;3.15;;;;;;;21.16;53.42;102514.94;6244303;23;20012;-60
2022/08/10 07:00:15;;;;;;;6.10;5.13;;;;;;;21.13;54.56;102507.03;6243736;23;20101;-61
2022/08/10 07:03:05;;;;;;;4.18;3.75;;;;;;;21.23;53.90;102514.66;6244745;23;20007;-62
2022/08/10 07:05:37;;;;;;;6.45;3.83;;;;;;;21.27;54.48;102522.28;6244315;23;20012;-60
2022/08/10 07:08:06;;;;;;;5.00;3.95;;;;;;;21.32;54.75;102524.22;6244944;23;20011;-61
2022/08/10 07:10:33;;;;;;;3.55;2.92;;;;;;;21.39;54.20;102523.97;6242901;23;20019;-60
2022/08/10 07:17:40;;;;;;;6.15;4.28;;;;;;;21.51;53.69;102525.34;6112122;23;20446;-63
2022/08/10 07:21:02;;;;;;;;;;;;;;;;;;;;;
2022/08/10 07:27:56;;;;;;;;;;;;;;;;;;;;;
2022/08/10 07:33:39;;;;;;;5.38;4.60;;;;;;;21.83;52.87;102528.91;6033367;23;20062;-64
2022/08/10 07:37:06;;;;;;;;;;;;;;;;;;;;;
2022/08/10 07:40:45;;;;;;;5.07;3.22;;;;;;;22.04;52.66;102524.84;5973089;24;20081;-64
2022/08/10 07:47:54;;;;;;;;;;;;;;;;;;;;;
2022/08/10 07:51:05;;;;;;;5.28;4.35;;;;;;;22.24;52.04;102521.97;5851129;24;20494;-66
2022/08/10 07:54:20;;;;;;;6.38;4.38;;;;;;;22.34;51.65;102529.53;5951089;24;20016;-63
2022/08/10 07:57:16;;;;;;;5.47;4.88;;;;;;;22.43;51.85;102526.94;6012770;23;20011;-64
2022/08/10 08:00:37;;;;;;;6.80;6.07;;;;;;;22.48;51.71;102526.91;6060279;23;20015;-64
2022/08/10 08:07:33;;;;;;;6.20;5.57;;;;;;;22.65;51.27;102535.84;5926811;24;20019;-63
2022/08/10 08:31:50;;;;;;;7.60;5.97;;;;;;;23.21;50.54;102521.22;5925453;24;20122;-64
2022/08/10 08:35:02;;;;;;;9.57;6.03;;;;;;;23.28;49.82;102526.53;5933995;24;20013;-66
2022/08/10 08:38:24;;;;;;;7.47;5.80;;;;;;;23.34;49.70;102525.34;6058247;23;20006;-65
2022/08/10 08:41:34;;;;;;;10.23;6.22;;;;;;;23.41;49.41;102519.31;6003123;23;20496;-66
2022/08/10 08:48:18;;;;;;;;;;;;;;;;;;;;;
2022/08/10 08:58:46;;;;;;;8.15;5.78;;;;;;;23.79;49.27;102523.16;6174868;23;20013;-67
2022/08/10 09:05:40;;;;;;;6.72;6.00;;;;;;;23.93;48.57;102523.25;6178523;23;20147;-65
2022/08/10 09:09:12;;;;;;;7.05;5.22;;;;;;;24.03;48.34;102520.31;6178667;23;20033;-66
2022/08/10 09:12:26;;;;;;;7.72;5.18;;;;;;;24.13;48.20;102508.84;6199899;23;20375;-67
2022/08/10 09:15:33;;;;;;;7.85;5.85;;;;;;;24.23;47.66;102503.00;6188571;23;20008;-66
2022/08/10 09:18:32;;;;;;;7.30;5.85;;;;;;;24.23;46.96;102503.00;6242276;23;20062;-66
2022/08/10 09:24:46;;;;;;;;;;;;;;;;;;;;;
2022/08/10 09:34:43;;;;;;;5.82;4.45;;;;;;;24.45;46.60;102488.22;6202191;23;20060;-67
2022/08/10 09:41:23;;;;;;;11.30;5.35;;;;;;;24.53;46.26;102483.84;6205622;23;20016;-67
2022/08/10 09:51:20;;;;;;;7.72;4.60;;;;;;;24.70;46.50;102478.44;6193504;23;20008;-69
2022/08/10 09:57:34;;;;;;;;;;;;;;;;;;;;;
2022/08/10 10:04:35;;;;;;;6.40;4.45;;;;;;;25.11;44.72;102468.38;6000986;23;20087;-67
2022/08/10 10:07:35;;;;;;;6.38;4.40;;;;;;;25.12;44.36;102462.41;6029560;23;20105;-66
2022/08/10 10:11:02;;;;;;;;;;;;;;;;;;;;;
2022/08/10 10:14:37;;;;;;;;;;;;;;;;;;;;;
2022/08/10 10:17:54;;;;;;;4.80;3.30;;;;;;;25.50;44.33;102455.66;6225249;23;20016;-69
2022/08/10 10:20:49;;;;;;;5.55;3.75;;;;;;;25.67;43.45;102456.72;6144493;23;20009;-68
2022/08/10 10:31:21;;;;;;;4.35;3.05;;;;;;;25.64;42.56;102439.47;6059489;23;20019;-66
2022/08/10 10:34:18;;;;;;;;;;;;;;;25.61;42.67;102438.06;6005949;23;20010;-64
2022/08/10 10:36:56;;;;;;;7.55;3.15;;;;;;;25.65;40.44;102439.13;6081921;23;20119;-67
2022/08/10 10:39:37;;;;;;;4.03;3.00;;;;;;;25.68;41.05;102426.28;6085166;23;20097;-68
2022/08/10 10:43:04;;;;;;;5.03;2.90;;;;;;;25.80;41.66;102425.78;6104598;23;20010;-65
2022/08/10 10:46:07;;;;;;;;;;;;;;;;;;;;;
2022/08/10 10:49:09;;;;;;;3.97;2.92;;;;;;;25.83;40.11;102413.75;6195369;23;20112;-70
2022/08/10 10:52:45;;;;;;;4.40;3.20;;;;;;;25.84;40.44;102413.44;6239397;23;20012;-68
2022/08/10 10:55:51;;;;;;;4.22;2.70;;;;;;;25.86;39.22;102413.09;6119752;23;20401;-65
2022/08/10 10:59:05;;;;;;;4.20;2.72;;;;;;;25.94;39.39;102418.06;6236419;23;20014;-67
2022/08/10 11:02:21;;;;;;;7.18;3.03;;;;;;;26.10;38.77;102408.00;6224339;23;20324;-66
2022/08/10 11:08:59;;;;;;;3.08;2.58;;;;;;;26.05;39.18;102395.88;6240282;23;20522;-63
2022/08/10 11:23:07;;;;;;;7.70;2.72;;;;;;;26.29;37.17;102384.19;6042334;23;20025;-66
2022/08/10 11:33:05;;;;;;;5.13;2.88;;;;;;;26.44;37.81;102383.78;6049328;23;20015;-64
2022/08/10 11:36:27;;;;;;;6.47;2.90;;;;;;;26.47;38.05;102368.94;6087449;23;20063;-63
2022/08/10 11:39:15;;;;;;;5.88;3.40;;;;;;;26.47;37.41;102368.94;6080302;23;20010;-65
2022/08/10 11:42:29;;;;;;;;;;;;;;;;;;;;;
2022/08/10 11:49:19;;;;;;;4.45;2.88;;;;;;;26.47;37.08;102371.81;6117984;23;20023;-67
2022/08/10 11:52:19;;;;;;;4.93;3.10;;;;;;;26.66;36.31;102358.19;6188089;23;20038;-64
2022/08/10 11:55:40;;;;;;;5.10;2.78;;;;;;;26.61;36.79;102355.47;6232448;23;20549;-64
2022/08/10 12:01:52;;;;;;;5.13;3.25;;;;;;;26.64;35.39;102366.19;6239951;23;20708;-62
2022/08/10 12:05:04;;;;;;;5.35;3.25;;;;;;;26.70;36.38;102366.91;6228038;22;20324;-65
2022/08/10 12:08:18;;;;;;;6.53;2.97;;;;;;;26.82;36.23;102354.91;6159774;23;20134;-67
2022/08/10 12:11:46;;;;;;;7.07;3.08;;;;;;;26.87;36.04;102347.06;6210203;23;20016;-67
2022/08/10 12:15:21;;;;;;;5.13;2.92;;;;;;;26.86;36.30;102345.38;6239050;23;20031;-68
2022/08/10 12:22:13;;;;;;;5.68;2.90;;;;;;;27.03;36.54;102340.91;6226856;23;20008;-66
2022/08/10 12:25:41;;;;;;;4.20;2.72;;;;;;;26.88;36.54;102342.19;6162956;23;20012;-64
2022/08/10 12:29:02;;;;;;;4.72;3.05;;;;;;;26.95;36.61;102339.72;6194019;23;20102;-63
2022/08/10 12:46:25;;;;;;;;;;;;;;;;;;;;;
2022/08/10 12:49:59;;;;;;;5.57;3.00;;;;;;;27.21;35.95;102313.34;6115286;23;20079;-64
2022/08/10 12:56:50;;;;;;;3.30;3.00;;;;;;;27.24;36.85;102312.69;6049329;23;20090;-68
2022/08/10 12:59:34;;;;;;;;;;;;;;;27.23;37.05;102314.69;6028348;23;20006;-66
2022/08/10 13:02:42;;;;;;;5.43;3.22;;;;;;;27.29;36.27;102312.53;6118000;23;20322;-66
2022/08/10 13:05:53;;;;;;;3.78;3.10;;;;;;;27.23;35.68;102308.97;6115839;23;20016;-66
2022/08/10 13:26:52;;;;;;;4.93;2.90;;;;;;;27.39;35.25;102278.00;6191697;23;20011;-65
2022/08/10 13:33:41;;;;;;;4.93;2.45;;;;;;;27.36;35.62;102275.81;6106707;23;20006;-64
2022/08/10 14:07:56;;;;;;;3.90;2.67;;;;;;;27.41;34.32;102230.03;6224541;23;20340;-65
2022/08/10 14:31:26;;;;;;;4.18;2.55;;;;;;;27.50;32.08;102207.22;6118446;23;20036;-64
2022/08/10 14:38:20;;;;;;;3.25;2.80;;;;;;;27.56;33.28;102203.88;6013490;23;20466;-65
2022/08/10 14:41:47;;;;;;;3.38;2.40;;;;;;;27.52;32.52;102202.88;6164340;23;20484;-66
2022/08/10 14:55:30;;;;;;;4.78;2.60;;;;;;;27.59;32.39;102200.34;6186479;23;20035;-66
2022/08/10 14:58:51;;;;;;;4.03;2.30;;;;;;;27.60;32.42;102192.63;6199789;23;20008;-67
2022/08/10 15:02:13;;;;;;;3.20;2.33;;;;;;;27.54;34.09;102186.25;6211295;23;20009;-66
2022/08/10 15:08:59;;;;;;;4.50;2.60;;;;;;;27.53;33.90;102184.56;6049517;23;20494;-65
2022/08/10 15:18:57;;;;;;;3.78;2.25;;;;;;;27.50;32.79;102192.97;6119864;23;20014;-64
2022/08/10 15:21:59;;;;;;;4.55;2.38;;;;;;;27.51;32.68;102181.22;6121018;23;20013;-65
2022/08/10 15:25:33;;;;;;;;;;;;;;;;;;;;;
2022/08/10 15:46:01;;;;;;;3.88;2.08;;;;;;;27.50;31.92;102175.84;6119240;23;20060;-66
2022/08/10 15:49:08;;;;;;;5.82;2.13;;;;;;;27.46;32.00;102154.88;6024216;23;20011;-65
2022/08/10 15:52:21;;;;;;;4.95;2.00;;;;;;;27.54;31.50;102165.44;5959300;23;20404;-64
2022/08/10 15:55:37;;;;;;;;;;;;;;;;;;;;;
2022/08/10 16:09:06;;;;;;;;;;;;;;;;;;;;;
2022/08/10 16:31:01;;;;;;;3.30;2.10;;;;;;;27.37;32.75;102152.88;5972847;23;20073;-66
2022/08/10 16:37:41;;;;;;;3.53;1.80;;;;;;;27.35;33.34;102141.00;6089932;23;20026;-67
2022/08/10 17:06:46;;;;;;;;;;;;;;;;;;;;;
2022/08/10 17:17:18;;;;;;;;;;;;;;;;;;;;;
2022/08/10 18:25:42;;;;;;;4.45;2.08;;;;;;;26.75;33.95;102118.94;5721068;25;20024;-65
2022/08/10 18:50:45;;;;;;;;;;;;;;;;;;;;;
2022/08/10 18:57:36;;;;;;;;;;;;;;;;;;;;;
2022/08/10 19:05:13;;;;;;;3.03;1.80;;;;;;;26.38;36.61;102118.34;6046862;23;20007;-68
2022/08/10 19:07:53;;;;;;;3.35;1.77;;;;;;;26.34;36.95;102117.34;6190420;23;20281;-65
2022/08/10 19:18:07;;;;;;;4.45;1.65;;;;;;;26.18;38.23;102130.34;6242525;23;20258;-68
2022/08/10 19:32:07;;;;;;;;;;;;;;;;;;;;;
2022/08/10 19:35:03;;;;;;;4.97;1.73;;;;;;;25.87;39.44;102138.88;6115868;23;20428;-67
2022/08/10 19:38:29;;;;;;;;;;;;;;;;;;;;;
2022/08/10 19:55:50;;;;;;;3.17;1.67;;;;;;;25.62;40.64;102141.22;6005564;23;20067;-67
2022/08/10 20:03:09;;;;;;;3.55;1.60;;;;;;;25.56;39.96;102136.00;5949402;24;20456;-66
2022/08/10 20:09:53;;;;;;;5.20;1.63;;;;;;;25.47;39.97;102150.16;5971329;23;20526;-67
2022/08/10 20:24:11;;;;;;;;;;;;;;;;;;;;;
2022/08/10 20:27:30;;;;;;;;;;;;;;;;;;;;;
2022/08/10 20:45:32;;;;;;;;;;;;;;;;;;;;;
2022/08/10 20:48:59;;;;;;;3.47;1.80;;;;;;;25.05;40.66;102149.44;5886282;24;20039;-66
2022/08/10 20:56:34;;;;;;;;;;;;;;;;;;;;;
2022/08/10 21:13:39;;;;;;;5.25;1.98;;;;;;;24.73;40.55;102156.97;5894940;24;20013;-67
2022/08/10 21:17:06;;;;;;;;;;;;;;;;;;;;;
2022/08/10 21:20:11;;;;;;;7.15;2.03;;;;;;;24.65;41.02;102157.72;5944075;24;20050;-65
2022/08/10 22:52:21;;;;;;;3.70;2.80;;;;;;;23.71;42.07;102136.28;6243762;23;20039;-64
2022/08/10 23:00:41;;;;;;;9.70;3.10;;;;;;;23.67;42.32;102123.91;6242274;23;20011;-64
2022/08/10 23:03:21;;;;;;;7.22;2.70;;;;;;;23.62;42.44;102129.63;6243571;23;20000;-63
2022/08/10 23:06:03;;;;;;;5.70;2.58;;;;;;;23.68;42.38;102122.72;6245276;23;20004;-63
2022/08/10 23:08:49;;;;;;;3.95;2.78;;;;;;;23.62;42.35;102128.75;6244345;23;20122;-64
2022/08/10 23:11:20;;;;;;;3.85;2.47;;;;;;;23.61;42.30;102122.25;6218568;23;20339;-64
2022/08/10 23:13:48;;;;;;;7.00;2.63;;;;;;;23.58;42.68;102125.75;6243915;23;20411;-63
2022/08/10 23:21:47;;;;;;;5.25;2.63;;;;;;;23.55;42.62;102117.84;6244767;23;20020;-63
2022/08/10 23:24:21;;;;;;;5.70;2.60;;;;;;;23.50;42.43;102124.47;6244604;23;20430;-63
2022/08/10 23:26:51;;;;;;;4.97;2.75;;;;;;;23.50;42.43;102121.63;6244552;23;20331;-63
2022/08/10 23:29:17;;;;;;;5.65;2.50;;;;;;;23.47;42.81;102122.22;6243877;23;20024;-63